sensor_id;sensor_type;location;lat;lon;timestamp;temperature;humidity
21928;DHT22;11128;51.096;17.190;2023-05-16T00:00:48;11.00;1.00
21928;DHT22;11128;51.096;17.190;2023-05-16T00:05:52;11.00;99.90
21928;DHT22;11128;51.096;17.190;2023-05-16T00:10:53;11.00;99.90
21928;DHT22;11128;51.096;17.190;2023-05-16T00:15:55;10.90;85.60
21928;DHT22;11128;51.096;17.190;2023-05-16T00:20:57;10.80;1.00
21928;DHT22;11128;51.096;17.190;2023-05-16T00:25:59;10.70;1.00
21928;DHT22;11128;51.096;17.190;2023-05-16T00:31:00;10.70;57.80
21928;DHT22;11128;51.096;17.190;2023-05-16T00:36:02;10.60;99.90
21928;DHT22;11128;51.096;17.190;2023-05-16T00:41:03;10.50;1.00
21928;DHT22;11128;51.096;17.190;2023-05-16T00:46:04;10.60;1.00
21928;DHT22;11128;51.096;17.190;2023-05-16T00:51:06;10.60;1.00
21928;DHT22;11128;51.096;17.190;2023-05-16T00:56:09;10.60;99.90
21928;DHT22;11128;51.096;17.190;2023-05-16T01:01:11;10.60;99.90
21928;DHT22;11128;51.096;17.190;2023-05-16T01:06:12;10.60;1.00
21928;DHT22;11128;51.096;17.190;2023-05-16T01:11:26;10.60;1.00
21928;DHT22;11128;51.096;17.190;2023-05-16T01:17:10;10.60;99.90
21928;DHT22;11128;51.096;17.190;2023-05-16T01:22:19;10.60;99.90
21928;DHT22;11128;51.096;17.190;2023-05-16T01:27:26;10.60;99.90
21928;DHT22;11128;51.096;17.190;2023-05-16T01:32:27;10.60;99.90
21928;DHT22;11128;51.096;17.190;2023-05-16T01:37:40;10.50;1.00
21928;DHT22;11128;51.096;17.190;2023-05-16T01:42:44;10.50;1.00
21928;DHT22;11128;51.096;17.190;2023-05-16T01:47:57;10.50;1.00
21928;DHT22;11128;51.096;17.190;2023-05-16T01:53:06;10.50;1.00
21928;DHT22;11128;51.096;17.190;2023-05-16T01:58:10;10.50;1.00
21928;DHT22;11128;51.096;17.190;2023-05-16T02:03:12;10.40;1.00
21928;DHT22;11128;51.096;17.190;2023-05-16T02:08:14;10.40;1.00
21928;DHT22;11128;51.096;17.190;2023-05-16T02:13:17;10.40;99.90
21928;DHT22;11128;51.096;17.190;2023-05-16T02:18:18;10.30;99.90
21928;DHT22;11128;51.096;17.190;2023-05-16T02:23:20;10.30;99.90
21928;DHT22;11128;51.096;17.190;2023-05-16T02:28:21;10.30;1.00
21928;DHT22;11128;51.096;17.190;2023-05-16T02:33:23;10.20;99.90
21928;DHT22;11128;51.096;17.190;2023-05-16T02:38:25;10.10;1.00
21928;DHT22;11128;51.096;17.190;2023-05-16T02:43:26;10.00;99.90
21928;DHT22;11128;51.096;17.190;2023-05-16T02:48:28;9.80;99.90
21928;DHT22;11128;51.096;17.190;2023-05-16T02:53:29;9.80;99.90
21928;DHT22;11128;51.096;17.190;2023-05-16T02:58:30;9.80;1.00
21928;DHT22;11128;51.096;17.190;2023-05-16T03:03:32;9.80;1.00
21928;DHT22;11128;51.096;17.190;2023-05-16T03:08:35;9.70;1.00
21928;DHT22;11128;51.096;17.190;2023-05-16T03:13:37;9.60;1.00
21928;DHT22;11128;51.096;17.190;2023-05-16T03:18:38;9.50;1.00
21928;DHT22;11128;51.096;17.190;2023-05-16T03:23:40;9.50;99.90
21928;DHT22;11128;51.096;17.190;2023-05-16T03:28:41;9.50;17.40
21928;DHT22;11128;51.096;17.190;2023-05-16T03:33:42;9.30;1.00
21928;DHT22;11128;51.096;17.190;2023-05-16T03:38:43;9.30;1.00
21928;DHT22;11128;51.096;17.190;2023-05-16T03:43:45;9.30;99.90
21928;DHT22;11128;51.096;17.190;2023-05-16T03:48:46;9.20;99.90
21928;DHT22;11128;51.096;17.190;2023-05-16T03:53:47;9.30;1.00
21928;DHT22;11128;51.096;17.190;2023-05-16T03:58:49;9.40;90.00
21928;DHT22;11128;51.096;17.190;2023-05-16T04:03:50;9.40;42.30
21928;DHT22;11128;51.096;17.190;2023-05-16T04:08:51;9.40;1.00
21928;DHT22;11128;51.096;17.190;2023-05-16T04:13:53;9.70;99.90
21928;DHT22;11128;51.096;17.190;2023-05-16T04:18:55;9.80;1.00
21928;DHT22;11128;51.096;17.190;2023-05-16T04:23:56;9.90;1.00
21928;DHT22;11128;51.096;17.190;2023-05-16T04:28:58;10.00;30.00
21928;DHT22;11128;51.096;17.190;2023-05-16T04:33:59;10.10;1.00
21928;DHT22;11128;51.096;17.190;2023-05-16T04:39:01;10.20;1.00
21928;DHT22;11128;51.096;17.190;2023-05-16T04:44:02;10.30;1.00
21928;DHT22;11128;51.096;17.190;2023-05-16T04:49:04;10.40;1.00
21928;DHT22;11128;51.096;17.190;2023-05-16T04:54:06;10.50;1.00
21928;DHT22;11128;51.096;17.190;2023-05-16T04:59:08;10.60;1.00
21928;DHT22;11128;51.096;17.190;2023-05-16T05:04:10;10.70;1.00
21928;DHT22;11128;51.096;17.190;2023-05-16T05:09:11;10.90;1.00
21928;DHT22;11128;51.096;17.190;2023-05-16T05:14:13;11.10;1.00
21928;DHT22;11128;51.096;17.190;2023-05-16T05:19:14;11.30;1.00
21928;DHT22;11128;51.096;17.190;2023-05-16T05:24:16;11.50;1.00
21928;DHT22;11128;51.096;17.190;2023-05-16T05:29:17;11.60;1.00
21928;DHT22;11128;51.096;17.190;2023-05-16T05:34:18;11.70;1.00
21928;DHT22;11128;51.096;17.190;2023-05-16T05:39:19;11.90;1.00
21928;DHT22;11128;51.096;17.190;2023-05-16T05:44:21;12.10;1.00
21928;DHT22;11128;51.096;17.190;2023-05-16T05:49:32;12.40;99.90
21928;DHT22;11128;51.096;17.190;2023-05-16T05:54:33;12.60;99.90
21928;DHT22;11128;51.096;17.190;2023-05-16T05:59:35;12.80;1.00
21928;DHT22;11128;51.096;17.190;2023-05-16T06:04:36;13.00;1.00
21928;DHT22;11128;51.096;17.190;2023-05-16T06:09:37;13.30;99.90
21928;DHT22;11128;51.096;17.190;2023-05-16T06:14:39;13.50;99.90
21928;DHT22;11128;51.096;17.190;2023-05-16T06:19:40;13.70;1.00
21928;DHT22;11128;51.096;17.190;2023-05-16T06:24:41;13.90;99.90
21928;DHT22;11128;51.096;17.190;2023-05-16T06:29:43;14.10;1.00
21928;DHT22;11128;51.096;17.190;2023-05-16T06:34:44;14.40;99.90
21928;DHT22;11128;51.096;17.190;2023-05-16T06:39:45;14.60;99.90
21928;DHT22;11128;51.096;17.190;2023-05-16T06:44:46;14.70;1.00
21928;DHT22;11128;51.096;17.190;2023-05-16T06:49:48;14.80;99.90
21928;DHT22;11128;51.096;17.190;2023-05-16T06:54:49;15.00;1.00
21928;DHT22;11128;51.096;17.190;2023-05-16T06:59:51;15.20;1.00
21928;DHT22;11128;51.096;17.190;2023-05-16T07:04:52;15.30;99.90
21928;DHT22;11128;51.096;17.190;2023-05-16T07:09:54;15.40;1.00
21928;DHT22;11128;51.096;17.190;2023-05-16T07:14:55;15.70;99.90
21928;DHT22;11128;51.096;17.190;2023-05-16T07:19:57;15.90;1.00
21928;DHT22;11128;51.096;17.190;2023-05-16T07:24:58;16.10;1.00
21928;DHT22;11128;51.096;17.190;2023-05-16T07:30:01;16.30;99.90
21928;DHT22;11128;51.096;17.190;2023-05-16T07:35:02;16.70;1.00
21928;DHT22;11128;51.096;17.190;2023-05-16T07:40:05;17.00;99.90
21928;DHT22;11128;51.096;17.190;2023-05-16T07:45:07;17.20;1.00
21928;DHT22;11128;51.096;17.190;2023-05-16T07:50:09;17.40;1.00
21928;DHT22;11128;51.096;17.190;2023-05-16T07:55:11;17.50;1.00
21928;DHT22;11128;51.096;17.190;2023-05-16T08:00:13;17.60;1.00
21928;DHT22;11128;51.096;17.190;2023-05-16T08:05:14;17.60;1.00
21928;DHT22;11128;51.096;17.190;2023-05-16T08:10:16;17.90;1.00
21928;DHT22;11128;51.096;17.190;2023-05-16T08:15:18;17.90;99.90
21928;DHT22;11128;51.096;17.190;2023-05-16T08:20:19;18.40;99.90
21928;DHT22;11128;51.096;17.190;2023-05-16T08:25:20;18.80;1.00
21928;DHT22;11128;51.096;17.190;2023-05-16T08:30:22;19.10;1.00
21928;DHT22;11128;51.096;17.190;2023-05-16T08:35:23;19.30;1.00
21928;DHT22;11128;51.096;17.190;2023-05-16T08:40:25;19.50;1.00
21928;DHT22;11128;51.096;17.190;2023-05-16T08:45:27;19.80;1.00
21928;DHT22;11128;51.096;17.190;2023-05-16T08:50:30;20.40;1.00
21928;DHT22;11128;51.096;17.190;2023-05-16T08:55:34;20.80;99.90
21928;DHT22;11128;51.096;17.190;2023-05-16T09:00:36;20.70;99.90
21928;DHT22;11128;51.096;17.190;2023-05-16T09:05:37;21.10;99.90
21928;DHT22;11128;51.096;17.190;2023-05-16T09:10:38;21.20;99.90
21928;DHT22;11128;51.096;17.190;2023-05-16T09:15:40;20.80;99.90
21928;DHT22;11128;51.096;17.190;2023-05-16T09:20:47;21.30;99.90
21928;DHT22;11128;51.096;17.190;2023-05-16T09:25:52;21.80;96.20
21928;DHT22;11128;51.096;17.190;2023-05-16T09:30:53;22.40;37.10
21928;DHT22;11128;51.096;17.190;2023-05-16T09:35:59;22.30;30.10
21928;DHT22;11128;51.096;17.190;2023-05-16T09:41:01;22.00;35.30
21928;DHT22;11128;51.096;17.190;2023-05-16T09:46:02;22.60;1.00
21928;DHT22;11128;51.096;17.190;2023-05-16T09:51:05;23.00;1.00
21928;DHT22;11128;51.096;17.190;2023-05-16T09:56:10;23.60;1.00
21928;DHT22;11128;51.096;17.190;2023-05-16T10:01:12;23.30;1.00
21928;DHT22;11128;51.096;17.190;2023-05-16T10:06:13;22.30;1.00
21928;DHT22;11128;51.096;17.190;2023-05-16T10:11:17;22.00;1.00
21928;DHT22;11128;51.096;17.190;2023-05-16T10:16:20;22.30;1.00
21928;DHT22;11128;51.096;17.190;2023-05-16T10:21:24;21.80;1.00
21928;DHT22;11128;51.096;17.190;2023-05-16T10:26:26;22.10;1.00
21928;DHT22;11128;51.096;17.190;2023-05-16T10:31:28;23.10;1.00
21928;DHT22;11128;51.096;17.190;2023-05-16T10:36:30;23.50;1.00
21928;DHT22;11128;51.096;17.190;2023-05-16T10:41:33;23.10;1.00
21928;DHT22;11128;51.096;17.190;2023-05-16T10:46:37;23.20;1.00
21928;DHT22;11128;51.096;17.190;2023-05-16T10:51:38;23.10;1.00
21928;DHT22;11128;51.096;17.190;2023-05-16T10:56:39;23.50;1.00
21928;DHT22;11128;51.096;17.190;2023-05-16T11:01:41;23.10;1.00
21928;DHT22;11128;51.096;17.190;2023-05-16T11:06:45;22.60;1.00
21928;DHT22;11128;51.096;17.190;2023-05-16T11:11:57;22.60;1.00
21928;DHT22;11128;51.096;17.190;2023-05-16T11:17:14;22.80;1.00
21928;DHT22;11128;51.096;17.190;2023-05-16T11:27:24;22.30;1.00
21928;DHT22;11128;51.096;17.190;2023-05-16T11:32:26;22.60;1.00
21928;DHT22;11128;51.096;17.190;2023-05-16T11:37:27;22.60;1.00
21928;DHT22;11128;51.096;17.190;2023-05-16T11:42:30;22.20;1.00
21928;DHT22;11128;51.096;17.190;2023-05-16T11:47:38;21.10;1.00
21928;DHT22;11128;51.096;17.190;2023-05-16T11:52:43;21.60;1.00
21928;DHT22;11128;51.096;17.190;2023-05-16T11:57:45;21.20;52.50
21928;DHT22;11128;51.096;17.190;2023-05-16T12:02:47;20.70;84.20
21928;DHT22;11128;51.096;17.190;2023-05-16T12:07:50;20.40;99.90
21928;DHT22;11128;51.096;17.190;2023-05-16T12:12:51;20.20;99.90
21928;DHT22;11128;51.096;17.190;2023-05-16T12:17:53;20.30;99.90
21928;DHT22;11128;51.096;17.190;2023-05-16T12:22:56;20.30;99.90
21928;DHT22;11128;51.096;17.190;2023-05-16T12:28:00;20.20;99.90
21928;DHT22;11128;51.096;17.190;2023-05-16T12:33:10;20.00;99.90
21928;DHT22;11128;51.096;17.190;2023-05-16T12:38:12;19.80;99.90
21928;DHT22;11128;51.096;17.190;2023-05-16T12:43:21;19.70;99.90
21928;DHT22;11128;51.096;17.190;2023-05-16T12:48:31;19.70;99.90
21928;DHT22;11128;51.096;17.190;2023-05-16T12:53:40;19.60;99.90
21928;DHT22;11128;51.096;17.190;2023-05-16T12:58:42;19.60;99.90
21928;DHT22;11128;51.096;17.190;2023-05-16T13:03:43;19.50;1.00
21928;DHT22;11128;51.096;17.190;2023-05-16T13:08:45;19.40;99.90
21928;DHT22;11128;51.096;17.190;2023-05-16T13:13:46;19.10;1.00
21928;DHT22;11128;51.096;17.190;2023-05-16T13:18:47;18.90;1.00
21928;DHT22;11128;51.096;17.190;2023-05-16T13:23:49;18.80;1.00
21928;DHT22;11128;51.096;17.190;2023-05-16T13:28:53;18.60;1.00
21928;DHT22;11128;51.096;17.190;2023-05-16T13:33:55;18.40;1.00
21928;DHT22;11128;51.096;17.190;2023-05-16T13:38:56;18.10;1.00
21928;DHT22;11128;51.096;17.190;2023-05-16T13:43:57;18.00;1.00
21928;DHT22;11128;51.096;17.190;2023-05-16T13:48:59;17.90;1.00
21928;DHT22;11128;51.096;17.190;2023-05-16T13:54:00;17.90;22.10
21928;DHT22;11128;51.096;17.190;2023-05-16T13:59:02;17.70;60.50
21928;DHT22;11128;51.096;17.190;2023-05-16T14:04:04;17.60;99.90
21928;DHT22;11128;51.096;17.190;2023-05-16T14:09:05;17.60;99.90
21928;DHT22;11128;51.096;17.190;2023-05-16T14:14:08;17.50;99.90
21928;DHT22;11128;51.096;17.190;2023-05-16T14:19:09;17.50;93.30
21928;DHT22;11128;51.096;17.190;2023-05-16T14:24:10;17.30;99.90
21928;DHT22;11128;51.096;17.190;2023-05-16T14:29:12;17.10;1.00
21928;DHT22;11128;51.096;17.190;2023-05-16T14:34:13;17.10;1.00
21928;DHT22;11128;51.096;17.190;2023-05-16T14:39:15;17.00;1.00
21928;DHT22;11128;51.096;17.190;2023-05-16T14:44:16;17.00;1.00
21928;DHT22;11128;51.096;17.190;2023-05-16T14:49:18;16.80;1.00
21928;DHT22;11128;51.096;17.190;2023-05-16T14:54:19;16.70;1.00
21928;DHT22;11128;51.096;17.190;2023-05-16T14:59:21;16.50;99.90
21928;DHT22;11128;51.096;17.190;2023-05-16T15:04:22;16.50;1.00
21928;DHT22;11128;51.096;17.190;2023-05-16T15:09:24;16.30;99.90
21928;DHT22;11128;51.096;17.190;2023-05-16T15:14:25;16.30;99.90
21928;DHT22;11128;51.096;17.190;2023-05-16T15:19:27;16.30;99.90
21928;DHT22;11128;51.096;17.190;2023-05-16T15:24:28;16.20;99.90
21928;DHT22;11128;51.096;17.190;2023-05-16T15:29:30;16.10;99.90
21928;DHT22;11128;51.096;17.190;2023-05-16T15:34:34;16.00;99.90
21928;DHT22;11128;51.096;17.190;2023-05-16T15:39:36;15.90;99.90
21928;DHT22;11128;51.096;17.190;2023-05-16T15:44:38;15.70;99.90
21928;DHT22;11128;51.096;17.190;2023-05-16T15:49:39;15.60;1.00
21928;DHT22;11128;51.096;17.190;2023-05-16T15:54:41;15.60;1.00
21928;DHT22;11128;51.096;17.190;2023-05-16T15:59:42;15.50;1.00
21928;DHT22;11128;51.096;17.190;2023-05-16T16:04:44;15.50;1.00
21928;DHT22;11128;51.096;17.190;2023-05-16T16:09:45;15.40;1.00
21928;DHT22;11128;51.096;17.190;2023-05-16T16:14:47;15.40;99.90
21928;DHT22;11128;51.096;17.190;2023-05-16T16:19:49;15.20;1.00
21928;DHT22;11128;51.096;17.190;2023-05-16T16:24:51;15.10;99.90
21928;DHT22;11128;51.096;17.190;2023-05-16T16:29:52;15.00;1.00
21928;DHT22;11128;51.096;17.190;2023-05-16T16:34:54;14.90;1.00
21928;DHT22;11128;51.096;17.190;2023-05-16T16:39:56;14.80;1.00
21928;DHT22;11128;51.096;17.190;2023-05-16T16:44:57;14.70;99.90
21928;DHT22;11128;51.096;17.190;2023-05-16T16:49:59;14.60;20.90
21928;DHT22;11128;51.096;17.190;2023-05-16T16:55:01;14.60;99.90
21928;DHT22;11128;51.096;17.190;2023-05-16T17:00:02;14.40;99.90
21928;DHT22;11128;51.096;17.190;2023-05-16T17:05:05;14.40;99.90
21928;DHT22;11128;51.096;17.190;2023-05-16T17:10:07;14.30;1.00
21928;DHT22;11128;51.096;17.190;2023-05-16T17:15:09;14.20;1.00
21928;DHT22;11128;51.096;17.190;2023-05-16T17:20:11;14.20;99.90
21928;DHT22;11128;51.096;17.190;2023-05-16T17:25:13;14.10;99.90
21928;DHT22;11128;51.096;17.190;2023-05-16T17:30:14;14.00;99.90
21928;DHT22;11128;51.096;17.190;2023-05-16T17:35:16;14.00;99.90
21928;DHT22;11128;51.096;17.190;2023-05-16T17:40:18;14.00;1.00
21928;DHT22;11128;51.096;17.190;2023-05-16T17:45:19;13.90;1.00
21928;DHT22;11128;51.096;17.190;2023-05-16T17:50:21;13.80;1.00
21928;DHT22;11128;51.096;17.190;2023-05-16T17:55:23;13.70;99.90
21928;DHT22;11128;51.096;17.190;2023-05-16T18:00:24;13.70;29.90
21928;DHT22;11128;51.096;17.190;2023-05-16T18:05:26;13.70;53.40
21928;DHT22;11128;51.096;17.190;2023-05-16T18:10:28;13.60;99.90
21928;DHT22;11128;51.096;17.190;2023-05-16T18:15:30;13.60;99.90
21928;DHT22;11128;51.096;17.190;2023-05-16T18:20:31;13.60;1.00
21928;DHT22;11128;51.096;17.190;2023-05-16T18:25:33;13.40;1.00
21928;DHT22;11128;51.096;17.190;2023-05-16T18:30:34;13.30;99.90
21928;DHT22;11128;51.096;17.190;2023-05-16T18:35:36;13.40;99.90
21928;DHT22;11128;51.096;17.190;2023-05-16T18:40:37;13.40;28.70
21928;DHT22;11128;51.096;17.190;2023-05-16T18:45:38;13.30;99.90
21928;DHT22;11128;51.096;17.190;2023-05-16T18:50:40;13.20;1.00
21928;DHT22;11128;51.096;17.190;2023-05-16T18:55:41;13.10;1.00
21928;DHT22;11128;51.096;17.190;2023-05-16T19:00:44;13.10;25.90
21928;DHT22;11128;51.096;17.190;2023-05-16T19:05:46;13.10;1.00
21928;DHT22;11128;51.096;17.190;2023-05-16T19:10:48;13.10;1.00
21928;DHT22;11128;51.096;17.190;2023-05-16T19:15:50;13.00;1.00
21928;DHT22;11128;51.096;17.190;2023-05-16T19:20:53;13.00;1.00
21928;DHT22;11128;51.096;17.190;2023-05-16T19:25:55;13.00;1.00
21928;DHT22;11128;51.096;17.190;2023-05-16T19:30:57;12.90;1.00
21928;DHT22;11128;51.096;17.190;2023-05-16T19:35:58;12.90;92.00
21928;DHT22;11128;51.096;17.190;2023-05-16T19:40:59;12.90;17.30
21928;DHT22;11128;51.096;17.190;2023-05-16T19:46:01;12.90;36.30
21928;DHT22;11128;51.096;17.190;2023-05-16T19:51:02;12.90;99.90
21928;DHT22;11128;51.096;17.190;2023-05-16T19:56:04;12.90;99.90
21928;DHT22;11128;51.096;17.190;2023-05-16T20:01:05;12.80;99.90
21928;DHT22;11128;51.096;17.190;2023-05-16T20:06:07;12.80;99.90
21928;DHT22;11128;51.096;17.190;2023-05-16T20:11:08;12.70;1.00
21928;DHT22;11128;51.096;17.190;2023-05-16T20:16:09;12.80;99.90
21928;DHT22;11128;51.096;17.190;2023-05-16T20:21:11;12.70;1.00
21928;DHT22;11128;51.096;17.190;2023-05-16T20:26:12;12.70;99.90
21928;DHT22;11128;51.096;17.190;2023-05-16T20:31:15;12.70;99.90
21928;DHT22;11128;51.096;17.190;2023-05-16T20:36:16;12.60;99.90
21928;DHT22;11128;51.096;17.190;2023-05-16T20:41:17;12.60;1.00
21928;DHT22;11128;51.096;17.190;2023-05-16T20:46:19;12.50;3.00
21928;DHT22;11128;51.096;17.190;2023-05-16T20:51:20;12.40;99.90
21928;DHT22;11128;51.096;17.190;2023-05-16T20:56:21;12.30;1.00
21928;DHT22;11128;51.096;17.190;2023-05-16T21:01:23;12.20;1.00
21928;DHT22;11128;51.096;17.190;2023-05-16T21:06:25;12.20;65.40
21928;DHT22;11128;51.096;17.190;2023-05-16T21:11:26;12.10;99.90
21928;DHT22;11128;51.096;17.190;2023-05-16T21:16:27;12.10;99.90
21928;DHT22;11128;51.096;17.190;2023-05-16T21:21:31;12.10;99.90
21928;DHT22;11128;51.096;17.190;2023-05-16T21:26:32;12.00;99.90
21928;DHT22;11128;51.096;17.190;2023-05-16T21:31:34;12.00;99.90
21928;DHT22;11128;51.096;17.190;2023-05-16T21:36:35;11.90;1.00
21928;DHT22;11128;51.096;17.190;2023-05-16T21:41:36;11.90;1.00
21928;DHT22;11128;51.096;17.190;2023-05-16T21:46:38;11.80;73.90
21928;DHT22;11128;51.096;17.190;2023-05-16T21:51:39;11.80;1.00
21928;DHT22;11128;51.096;17.190;2023-05-16T21:56:41;11.80;37.00
21928;DHT22;11128;51.096;17.190;2023-05-16T22:01:42;11.70;99.90
21928;DHT22;11128;51.096;17.190;2023-05-16T22:06:43;11.80;53.80
21928;DHT22;11128;51.096;17.190;2023-05-16T22:11:44;11.80;1.00
21928;DHT22;11128;51.096;17.190;2023-05-16T22:16:46;11.70;1.00
21928;DHT22;11128;51.096;17.190;2023-05-16T22:21:47;11.70;73.60
21928;DHT22;11128;51.096;17.190;2023-05-16T22:26:48;11.70;99.90
21928;DHT22;11128;51.096;17.190;2023-05-16T22:31:49;11.70;99.90
21928;DHT22;11128;51.096;17.190;2023-05-16T22:36:51;11.60;99.90
21928;DHT22;11128;51.096;17.190;2023-05-16T22:41:52;11.60;99.90
21928;DHT22;11128;51.096;17.190;2023-05-16T22:46:54;11.50;1.00
21928;DHT22;11128;51.096;17.190;2023-05-16T22:51:55;11.50;1.00
21928;DHT22;11128;51.096;17.190;2023-05-16T22:56:56;11.50;1.00
21928;DHT22;11128;51.096;17.190;2023-05-16T23:01:58;11.40;1.00
21928;DHT22;11128;51.096;17.190;2023-05-16T23:06:59;11.50;1.00
21928;DHT22;11128;51.096;17.190;2023-05-16T23:12:00;11.40;1.00
21928;DHT22;11128;51.096;17.190;2023-05-16T23:17:02;11.40;1.00
21928;DHT22;11128;51.096;17.190;2023-05-16T23:22:04;11.40;1.00
21928;DHT22;11128;51.096;17.190;2023-05-16T23:27:06;11.40;1.00
21928;DHT22;11128;51.096;17.190;2023-05-16T23:32:07;11.30;1.00
21928;DHT22;11128;51.096;17.190;2023-05-16T23:37:08;11.30;1.00
21928;DHT22;11128;51.096;17.190;2023-05-16T23:42:09;11.30;1.00
21928;DHT22;11128;51.096;17.190;2023-05-16T23:47:11;11.30;1.00
21928;DHT22;11128;51.096;17.190;2023-05-16T23:52:12;11.30;1.00
21928;DHT22;11128;51.096;17.190;2023-05-16T23:57:13;11.30;1.00
